Time;durP1;ratioP1;P1;durP2;ratioP2;P2;SDS_P1;SDS_P2;PMS_P1;PMS_P2;Temp;Humidity;BMP_temperature;BMP_pressure;BME280_temperature;BME280_humidity;BME280_pressure;Samples;Min_cycle;Max_cycle;Signal;HPM_P1;HPM_P2
2023/01/08 00:01:09;;;;;;;3.30;1.90;;;;;;;9.22;77.45;99869.52;105333;1295;62449;-77
2023/01/08 00:03:37;;;;;;;3.00;1.90;;;;;;;9.24;77.59;99866.29;105276;1295;59741;-77
2023/01/08 00:06:06;;;;;;;2.70;1.90;;;;;;;9.24;77.80;99861.23;103725;1306;74435;-78
2023/01/08 00:08:33;;;;;;;2.90;1.80;;;;;;;9.24;77.66;99869.79;103107;1302;69748;-79
2023/01/08 00:11:00;;;;;;;3.80;1.90;;;;;;;9.23;77.77;99873.85;103475;1298;72471;-78
2023/01/08 00:13:27;;;;;;;3.40;2.10;;;;;;;9.24;77.87;99871.77;103816;1296;62038;-78
2023/01/08 00:15:54;;;;;;;3.70;2.30;;;;;;;9.25;77.91;99878.39;103377;1303;62181;-77
2023/01/08 00:18:20;;;;;;;2.80;1.90;;;;;;;9.23;77.98;99867.42;103093;1304;62436;-78
2023/01/08 00:20:47;;;;;;;4.30;2.10;;;;;;;9.25;78.16;99864.06;103048;1301;62138;-78
2023/01/08 00:23:16;;;;;;;4.70;2.20;;;;;;;9.25;78.12;99861.77;103586;1305;71895;-78
2023/01/08 00:25:43;;;;;;;3.60;2.00;;;;;;;9.25;78.09;99867.61;103024;1302;62328;-78
2023/01/08 00:28:10;;;;;;;3.70;1.90;;;;;;;9.23;78.35;99860.63;102906;1303;62701;-78
2023/01/08 00:30:37;;;;;;;4.40;2.20;;;;;;;9.22;78.39;99850.47;103507;1305;74425;-77
2023/01/08 00:33:03;;;;;;;3.20;2.20;;;;;;;9.21;78.51;99833.55;103399;1298;69649;-79
2023/01/08 00:35:30;;;;;;;3.10;2.10;;;;;;;9.19;78.55;99835.50;103382;1305;71409;-78
2023/01/08 00:37:56;;;;;;;3.30;2.00;;;;;;;9.19;78.76;99843.85;103014;1305;62058;-78
2023/01/08 00:40:23;;;;;;;3.30;2.00;;;;;;;9.17;78.63;99846.84;103213;1293;62048;-77
2023/01/08 00:42:49;;;;;;;3.30;1.90;;;;;;;9.17;78.88;99851.31;103261;1306;62091;-77
2023/01/08 00:45:16;;;;;;;2.80;2.00;;;;;;;9.15;78.81;99852.35;103126;1304;62705;-77
2023/01/08 00:47:42;;;;;;;3.10;2.00;;;;;;;9.14;78.97;99850.79;102549;1304;62135;-77
2023/01/08 00:50:09;;;;;;;3.80;1.90;;;;;;;9.12;79.05;99853.70;103857;1297;62215;-78
2023/01/08 00:52:35;;;;;;;4.10;2.00;;;;;;;9.09;79.09;99857.73;102922;1305;62096;-77
2023/01/08 00:55:02;;;;;;;4.20;2.00;;;;;;;9.09;79.23;99850.52;102822;1297;63238;-77
2023/01/08 00:57:33;;;;;;;3.30;2.10;;;;;;;9.10;79.38;99842.27;102831;1295;71114;-77
2023/01/08 01:00:00;;;;;;;4.00;2.10;;;;;;;9.09;79.46;99842.91;103482;1304;70604;-77
2023/01/08 01:02:27;;;;;;;3.00;2.00;;;;;;;9.09;79.47;99839.54;103652;1304;62634;-77
2023/01/08 01:04:53;;;;;;;3.70;2.20;;;;;;;9.10;79.64;99840.52;102670;1290;62694;-77
2023/01/08 01:07:20;;;;;;;3.50;2.50;;;;;;;9.10;79.81;99845.21;103440;1304;75126;-77
2023/01/08 01:09:47;;;;;;;3.50;2.60;;;;;;;9.12;79.79;99844.62;102856;1305;69975;-77
2023/01/08 01:12:13;;;;;;;3.50;2.00;;;;;;;9.15;79.74;99846.61;102834;1305;62068;-77
2023/01/08 01:14:40;;;;;;;3.50;2.30;;;;;;;9.16;79.64;99850.86;102856;1296;62183;-77
2023/01/08 01:17:07;;;;;;;4.00;2.30;;;;;;;9.17;79.64;99832.68;103102;1305;62115;-77
2023/01/08 01:19:33;;;;;;;3.50;2.40;;;;;;;9.18;79.70;99825.00;103041;1299;62177;-77
2023/01/08 01:22:00;;;;;;;3.30;2.30;;;;;;;9.19;79.69;99823.00;103389;1297;62286;-77
2023/01/08 01:24:26;;;;;;;3.20;2.20;;;;;;;9.21;79.68;99814.34;103431;1306;73482;-79
2023/01/08 01:26:55;;;;;;;3.50;2.30;;;;;;;9.23;79.77;99819.86;102866;1299;62201;-77
2023/01/08 01:29:22;;;;;;;3.20;2.10;;;;;;;9.25;79.69;99820.09;102844;1303;62142;-76
2023/01/08 01:31:49;;;;;;;3.00;2.30;;;;;;;9.26;79.62;99817.91;103041;1303;75160;-75
2023/01/08 01:34:15;;;;;;;4.10;2.20;;;;;;;9.28;79.80;99822.07;102973;1305;70151;-75
2023/01/08 01:36:42;;;;;;;3.40;2.30;;;;;;;9.28;79.60;99820.58;103983;1295;71014;-76
2023/01/08 01:39:09;;;;;;;4.00;2.30;;;;;;;9.29;79.52;99817.46;103790;1298;62116;-76
2023/01/08 01:41:42;;;;;;;4.30;2.60;;;;;;;9.32;79.66;99813.13;103232;1304;62097;-76
2023/01/08 01:44:33;;;;;;;4.30;2.70;;;;;;;9.34;79.70;99808.94;103819;1303;73895;-76
2023/01/08 01:47:06;;;;;;;3.10;2.30;;;;;;;9.34;79.56;99805.73;103187;1304;71312;-76
2023/01/08 01:49:33;;;;;;;4.00;2.50;;;;;;;9.37;79.54;99813.70;103665;1287;71381;-77
2023/01/08 01:52:04;;;;;;;4.50;2.60;;;;;;;9.37;79.31;99814.80;102925;1298;62299;-76
2023/01/08 01:54:31;;;;;;;3.90;2.80;;;;;;;9.38;79.44;99815.99;103966;1301;62173;-76
2023/01/08 01:56:59;;;;;;;3.30;2.40;;;;;;;9.41;79.40;99819.60;103057;1293;74599;-76
2023/01/08 01:59:26;;;;;;;3.70;2.50;;;;;;;9.43;79.12;99824.02;103329;1304;71261;-76
2023/01/08 02:01:54;;;;;;;3.90;2.70;;;;;;;9.44;79.30;99827.41;103625;1296;71571;-76
2023/01/08 02:04:20;;;;;;;3.70;2.50;;;;;;;9.47;79.16;99827.39;103202;1296;62577;-76
2023/01/08 02:07:01;;;;;;;3.80;2.50;;;;;;;9.48;79.30;99823.73;103395;1305;62087;-76
2023/01/08 02:09:58;;;;;;;4.10;2.40;;;;;;;9.48;79.09;99810.29;103462;1304;75014;-77
2023/01/08 02:12:35;;;;;;;4.10;2.30;;;;;;;9.49;79.15;99808.17;103338;1303;69806;-76
2023/01/08 02:15:07;;;;;;;4.40;2.80;;;;;;;9.50;79.09;99796.66;103307;1296;70826;-75
2023/01/08 02:17:49;;;;;;;4.60;3.00;;;;;;;9.49;78.98;99792.89;103330;1297;62530;-76
2023/01/08 02:20:30;;;;;;;4.20;2.90;;;;;;;9.48;79.09;99785.01;102917;1304;59916;-76
2023/01/08 02:23:35;;;;;;;3.90;2.60;;;;;;;9.48;79.20;99789.20;103625;1298;74331;-77
2023/01/08 02:26:12;;;;;;;3.90;2.60;;;;;;;9.45;79.35;99786.98;102825;1305;68819;-77
2023/01/08 02:28:58;;;;;;;4.90;2.90;;;;;;;9.42;79.34;99783.66;103712;1296;72896;-77
2023/01/08 02:31:27;;;;;;;4.30;3.00;;;;;;;9.41;79.55;99785.95;103188;1297;62183;-76
2023/01/08 02:33:54;;;;;;;4.10;2.70;;;;;;;9.39;79.66;99790.34;103331;1304;62092;-77
2023/01/08 02:36:30;;;;;;;4.00;3.00;;;;;;;9.35;79.60;99789.90;103537;1303;62210;-78
2023/01/08 02:39:23;;;;;;;4.60;3.10;;;;;;;9.36;79.78;99796.47;103994;1303;69728;-76
2023/01/08 02:41:55;;;;;;;4.80;2.90;;;;;;;9.37;79.75;99782.30;103444;1304;71204;-76
2023/01/08 02:44:46;;;;;;;4.40;2.80;;;;;;;9.38;79.94;99779.46;103208;1298;62954;-75
2023/01/08 02:47:26;;;;;;;4.40;3.20;;;;;;;9.40;79.91;99781.40;105294;1295;61323;-77
2023/01/08 02:50:15;;;;;;;4.20;2.90;;;;;;;9.42;79.96;99781.50;104111;1302;75614;-76
2023/01/08 02:52:57;;;;;;;4.00;2.90;;;;;;;9.45;80.03;99789.95;104195;1295;69909;-77
2023/01/08 02:55:25;;;;;;;4.50;3.10;;;;;;;9.46;79.89;99791.59;103865;1301;72143;-76
2023/01/08 02:57:52;;;;;;;5.60;3.20;;;;;;;9.48;79.77;99788.53;103653;1303;62177;-76
2023/01/08 03:00:20;;;;;;;4.70;2.90;;;;;;;9.51;79.49;99782.55;103184;1303;62199;-76
2023/01/08 03:02:51;;;;;;;4.90;3.10;;;;;;;9.52;79.73;99783.77;103584;1302;74808;-79
2023/01/08 03:05:24;;;;;;;5.70;3.20;;;;;;;9.53;79.62;99779.99;103920;1297;69780;-77
2023/01/08 03:07:50;;;;;;;3.90;2.90;;;;;;;9.55;79.38;99786.27;103210;1297;71255;-77
2023/01/08 03:10:21;;;;;;;3.80;3.00;;;;;;;9.58;79.35;99793.52;103155;1302;62221;-76
2023/01/08 03:12:58;;;;;;;4.20;2.80;;;;;;;9.59;79.51;99795.81;103234;1304;62745;-76
2023/01/08 03:15:30;;;;;;;4.30;3.00;;;;;;;9.62;79.43;99795.64;103941;1289;74598;-76
2023/01/08 03:18:03;;;;;;;4.60;3.00;;;;;;;9.62;79.29;99794.37;103348;1297;71115;-77
2023/01/08 03:20:31;;;;;;;4.90;3.00;;;;;;;9.66;79.30;99794.48;103211;1304;72521;-77
2023/01/08 03:23:01;;;;;;;4.90;3.20;;;;;;;9.68;79.22;99793.29;103227;1296;62234;-78
2023/01/08 03:25:29;;;;;;;5.10;3.20;;;;;;;9.70;79.03;99794.25;103439;1304;62157;-77
2023/01/08 03:28:04;;;;;;;3.80;3.00;;;;;;;9.73;79.25;99799.33;103475;1298;73947;-77
2023/01/08 03:30:31;;;;;;;3.80;3.10;;;;;;;9.76;79.16;99797.63;102977;1302;71346;-78
2023/01/08 03:33:00;;;;;;;4.30;3.10;;;;;;;9.77;79.09;99793.77;103347;1305;71552;-77
2023/01/08 03:35:29;;;;;;;5.00;3.00;;;;;;;9.76;78.91;99788.54;103807;1290;62031;-77
2023/01/08 03:38:04;;;;;;;3.90;3.00;;;;;;;9.80;78.92;99778.74;103228;1305;62096;-76
2023/01/08 03:40:45;;;;;;;3.80;3.00;;;;;;;9.83;79.01;99763.36;103708;1289;74196;-76
2023/01/08 03:43:12;;;;;;;4.90;3.00;;;;;;;9.83;78.94;99763.58;103900;1298;72157;-77
2023/01/08 03:45:47;;;;;;;4.40;3.10;;;;;;;9.85;78.93;99759.14;103614;1297;70457;-78
2023/01/08 03:48:15;;;;;;;3.60;2.60;;;;;;;9.86;78.93;99757.35;102983;1306;62175;-78
2023/01/08 03:50:42;;;;;;;4.10;3.00;;;;;;;9.87;79.04;99756.13;103590;1298;60627;-78
2023/01/08 03:53:08;;;;;;;5.60;3.00;;;;;;;9.88;79.06;99756.40;103538;1305;62211;-78
2023/01/08 03:55:35;;;;;;;4.30;2.70;;;;;;;9.88;79.11;99754.94;103551;1297;62207;-77
2023/01/08 03:58:01;;;;;;;3.90;2.80;;;;;;;9.88;79.20;99755.38;103070;1297;62646;-78
2023/01/08 04:00:28;;;;;;;4.10;2.70;;;;;;;9.86;79.17;99755.36;103092;1300;62661;-77
2023/01/08 04:02:55;;;;;;;4.30;2.70;;;;;;;9.86;79.34;99750.07;104033;1295;62175;-78
2023/01/08 04:05:21;;;;;;;4.20;2.70;;;;;;;9.86;79.45;99748.88;104095;1305;62086;-77
2023/01/08 04:07:48;;;;;;;3.90;2.70;;;;;;;9.86;79.37;99750.23;104108;1295;62020;-78
2023/01/08 04:10:14;;;;;;;3.80;2.50;;;;;;;9.86;79.56;99744.84;104261;1296;63374;-78
2023/01/08 04:12:42;;;;;;;4.10;2.70;;;;;;;9.86;79.67;99740.64;103897;1299;62204;-78
2023/01/08 04:15:09;;;;;;;4.60;2.80;;;;;;;9.86;79.67;99735.52;103834;1291;62232;-78
2023/01/08 04:17:35;;;;;;;3.50;2.50;;;;;;;9.85;79.82;99737.21;103506;1304;73039;-78
2023/01/08 04:20:02;;;;;;;3.50;2.60;;;;;;;9.83;79.83;99741.88;103307;1303;62006;-78
2023/01/08 04:22:28;;;;;;;4.00;2.40;;;;;;;9.83;79.98;99739.23;103538;1306;72343;-77
2023/01/08 04:24:55;;;;;;;3.80;2.40;;;;;;;9.81;80.01;99740.28;103563;1303;62116;-77
2023/01/08 04:27:21;;;;;;;5.30;3.00;;;;;;;9.82;80.07;99739.48;103257;1297;62083;-77
2023/01/08 04:29:48;;;;;;;5.00;2.80;;;;;;;9.83;80.11;99730.27;104344;1297;60890;-78
2023/01/08 04:32:14;;;;;;;3.20;2.40;;;;;;;9.83;80.31;99723.02;104122;1298;60301;-77
2023/01/08 04:34:41;;;;;;;3.70;2.40;;;;;;;9.83;80.16;99723.10;103899;1297;60007;-77
2023/01/08 04:37:07;;;;;;;4.40;2.70;;;;;;;9.83;80.28;99721.77;103221;1297;62203;-76
2023/01/08 04:39:34;;;;;;;4.00;2.90;;;;;;;9.79;80.38;99715.38;103296;1303;62204;-77
2023/01/08 04:42:00;;;;;;;4.10;2.90;;;;;;;9.78;80.54;99714.40;103938;1297;62147;-76
2023/01/08 04:44:27;;;;;;;4.90;2.90;;;;;;;9.78;80.72;99714.73;103918;1295;62211;-77
2023/01/08 04:46:53;;;;;;;5.10;3.00;;;;;;;9.76;80.77;99716.70;103738;1301;62099;-77
2023/01/08 04:49:20;;;;;;;5.10;2.90;;;;;;;9.75;80.92;99711.70;104047;1288;62093;-77
2023/01/08 04:51:46;;;;;;;5.40;2.90;;;;;;;9.75;80.96;99705.05;104183;1297;60451;-76
2023/01/08 04:54:12;;;;;;;4.60;2.90;;;;;;;9.75;81.11;99706.04;103530;1308;62186;-76
2023/01/08 04:56:39;;;;;;;5.30;3.00;;;;;;;9.74;81.17;99704.93;103312;1297;60197;-76
2023/01/08 04:59:05;;;;;;;3.90;2.80;;;;;;;9.73;81.17;99702.23;102942;1304;62323;-76
2023/01/08 05:01:32;;;;;;;4.90;3.20;;;;;;;9.71;81.27;99700.34;104244;1296;62270;-77
2023/01/08 05:04:02;;;;;;;4.70;2.90;;;;;;;9.70;81.38;99700.52;103386;1293;62001;-76
2023/01/08 05:06:30;;;;;;;5.50;3.00;;;;;;;9.67;81.64;99697.73;103430;1305;73880;-76
2023/01/08 05:08:57;;;;;;;4.00;2.70;;;;;;;9.65;81.84;99702.05;103773;1297;70928;-76
2023/01/08 05:11:24;;;;;;;3.50;2.70;;;;;;;9.64;82.13;99703.50;103397;1296;72446;-77
2023/01/08 05:13:51;;;;;;;3.90;2.60;;;;;;;9.62;82.39;99699.13;103073;1299;62218;-76
2023/01/08 05:16:18;;;;;;;4.40;2.40;;;;;;;9.59;82.81;99695.00;103612;1297;62705;-75
2023/01/08 05:18:45;;;;;;;2.90;2.20;;;;;;;9.55;83.22;99695.17;103775;1304;74275;-76
2023/01/08 05:21:12;;;;;;;3.40;2.10;;;;;;;9.50;83.52;99694.56;103454;1298;71395;-76
2023/01/08 05:23:43;;;;;;;4.20;2.90;;;;;;;9.48;83.66;99697.31;103021;1304;71098;-77
2023/01/08 05:26:09;;;;;;;3.60;2.30;;;;;;;9.44;84.01;99699.21;103336;1296;62194;-76
2023/01/08 05:28:35;;;;;;;3.60;2.60;;;;;;;9.39;84.27;99694.53;103893;1297;59926;-76
2023/01/08 05:31:02;;;;;;;4.30;2.70;;;;;;;9.36;84.64;99699.46;103135;1305;62208;-76
2023/01/08 05:33:29;;;;;;;4.20;2.60;;;;;;;9.32;84.80;99696.64;102983;1297;62100;-76
2023/01/08 05:35:55;;;;;;;3.60;2.50;;;;;;;9.27;84.98;99695.98;103913;1297;70806;-76
2023/01/08 05:38:22;;;;;;;5.00;2.60;;;;;;;9.25;85.24;99695.91;103482;1280;62201;-76
2023/01/08 05:40:52;;;;;;;4.10;2.60;;;;;;;9.21;85.73;99693.57;103310;1296;62215;-75
2023/01/08 05:43:19;;;;;;;3.70;2.60;;;;;;;9.19;85.90;99690.23;102962;1291;74432;-77
2023/01/08 05:45:45;;;;;;;4.10;2.90;;;;;;;9.18;86.07;99690.73;103770;1287;61914;-76
2023/01/08 05:48:11;;;;;;;4.90;2.60;;;;;;;9.16;86.49;99695.11;103224;1305;62509;-76
2023/01/08 05:50:38;;;;;;;4.00;3.00;;;;;;;9.13;86.91;99691.83;103427;1304;62099;-76
2023/01/08 05:53:06;;;;;;;3.70;2.90;;;;;;;9.10;86.86;99688.75;103428;1296;62186;-76
2023/01/08 05:55:33;;;;;;;4.20;3.10;;;;;;;9.08;87.00;99686.16;103169;1304;75524;-76
2023/01/08 05:58:01;;;;;;;4.20;2.70;;;;;;;9.06;87.59;99683.81;103639;1298;71113;-76
2023/01/08 06:00:29;;;;;;;5.20;3.30;;;;;;;9.03;88.11;99682.86;103153;1306;76062;-76
2023/01/08 06:02:55;;;;;;;3.90;3.20;;;;;;;9.00;88.20;99686.36;102982;1306;62093;-77
2023/01/08 06:05:22;;;;;;;4.70;3.10;;;;;;;8.96;88.93;99684.95;103639;1304;62224;-76
2023/01/08 06:07:48;;;;;;;4.10;3.30;;;;;;;8.95;88.97;99683.42;103544;1298;62081;-76
2023/01/08 06:10:15;;;;;;;5.70;3.50;;;;;;;8.96;88.70;99686.98;103654;1297;72217;-76
2023/01/08 06:12:41;;;;;;;4.30;3.00;;;;;;;8.96;89.13;99683.04;103450;1290;72849;-76
2023/01/08 06:15:09;;;;;;;4.10;2.90;;;;;;;8.96;89.31;99675.71;103239;1298;62025;-76
2023/01/08 06:17:35;;;;;;;4.40;2.90;;;;;;;8.93;89.40;99669.46;103234;1297;62168;-76
2023/01/08 06:20:02;;;;;;;4.50;3.20;;;;;;;8.93;89.37;99670.10;103164;1304;59886;-76
2023/01/08 06:22:29;;;;;;;4.70;3.00;;;;;;;8.94;89.56;99671.74;103782;1299;69547;-76
2023/01/08 06:24:56;;;;;;;4.50;3.60;;;;;;;8.94;89.66;99669.27;102955;1287;72915;-76
2023/01/08 06:27:22;;;;;;;4.90;3.20;;;;;;;8.93;89.64;99667.02;103295;1302;62077;-76
2023/01/08 06:29:48;;;;;;;5.80;3.50;;;;;;;8.93;89.88;99664.02;103572;1299;62173;-76
2023/01/08 06:32:15;;;;;;;3.90;3.10;;;;;;;8.93;90.12;99664.91;103640;1296;62578;-76
2023/01/08 06:34:42;;;;;;;5.00;3.30;;;;;;;8.92;90.16;99664.73;103233;1302;60172;-76
2023/01/08 06:37:08;;;;;;;4.40;3.00;;;;;;;8.91;90.21;99662.39;102924;1289;62194;-76
2023/01/08 06:39:35;;;;;;;5.40;3.50;;;;;;;8.89;90.43;99658.16;103383;1300;188880;-76
2023/01/08 06:42:01;;;;;;;4.10;3.30;;;;;;;8.88;90.94;99659.21;103634;1295;62126;-76
2023/01/08 06:44:28;;;;;;;4.60;3.40;;;;;;;8.87;91.11;99661.67;102922;1304;62149;-76
2023/01/08 06:46:54;;;;;;;3.90;3.20;;;;;;;8.86;90.94;99657.77;103906;1306;62138;-76
2023/01/08 06:49:21;;;;;;;4.20;3.20;;;;;;;8.85;91.14;99662.44;102790;1304;62570;-76
2023/01/08 06:51:48;;;;;;;5.40;3.20;;;;;;;8.83;91.53;99661.93;103422;1299;62244;-76
2023/01/08 06:54:14;;;;;;;5.30;3.50;;;;;;;8.82;91.64;99662.94;103320;1298;62567;-77
2023/01/08 06:56:41;;;;;;;4.50;3.30;;;;;;;8.82;92.00;99658.94;103381;1300;62030;-77
2023/01/08 06:59:18;;;;;;;5.30;3.70;;;;;;;8.82;92.00;99666.18;103730;1289;70817;-78
2023/01/08 07:01:45;;;;;;;4.60;3.10;;;;;;;8.82;92.10;99665.69;103452;1304;62185;-77
2023/01/08 07:04:12;;;;;;;6.00;3.30;;;;;;;8.81;92.28;99664.75;103739;1297;62478;-78
2023/01/08 07:06:38;;;;;;;4.20;3.00;;;;;;;8.80;92.48;99665.88;103760;1303;60512;-78
2023/01/08 07:09:04;;;;;;;4.60;3.00;;;;;;;8.78;92.84;99666.60;103165;1301;62084;-78
2023/01/08 07:11:32;;;;;;;6.40;3.00;;;;;;;8.76;93.26;99662.23;103606;1296;62070;-79
2023/01/08 07:13:58;;;;;;;4.00;3.00;;;;;;;8.75;93.37;99664.86;103681;1297;72510;-79
2023/01/08 07:16:25;;;;;;;3.80;3.00;;;;;;;8.75;93.67;99663.64;103844;1299;60149;-76
2023/01/08 07:18:51;;;;;;;4.30;3.00;;;;;;;8.73;94.23;99665.45;103424;1304;62622;-82
2023/01/08 07:21:19;;;;;;;4.10;2.50;;;;;;;8.73;94.48;99663.77;103641;1299;62095;-79
2023/01/08 07:23:48;;;;;;;4.50;2.60;;;;;;;8.70;94.81;99667.05;103628;1297;70007;-77
2023/01/08 07:26:15;;;;;;;5.20;3.10;;;;;;;8.71;95.09;99667.90;103711;1304;71444;-77
2023/01/08 07:28:42;;;;;;;4.20;3.00;;;;;;;8.70;95.15;99668.17;103177;1300;62186;-79
2023/01/08 07:31:09;;;;;;;4.60;3.10;;;;;;;8.69;95.53;99668.61;103509;1301;62498;-78
2023/01/08 07:33:35;;;;;;;4.00;3.10;;;;;;;8.68;95.75;99674.75;104009;1298;74956;-78
2023/01/08 07:36:04;;;;;;;5.30;3.30;;;;;;;8.68;95.94;99675.23;104510;1295;70291;-77
2023/01/08 07:38:30;;;;;;;4.50;3.00;;;;;;;8.68;96.53;99674.38;104411;1301;72706;-77
2023/01/08 07:40:57;;;;;;;4.70;3.10;;;;;;;8.68;96.64;99676.73;104055;1306;61201;-78
2023/01/08 07:43:25;;;;;;;4.60;2.90;;;;;;;8.68;96.62;99677.88;104215;1299;60431;-77
2023/01/08 07:45:51;;;;;;;4.50;3.20;;;;;;;8.68;97.10;99682.36;103467;1304;73537;-78
2023/01/08 07:48:18;;;;;;;5.40;3.40;;;;;;;8.68;97.05;99680.69;103494;1298;62084;-78
2023/01/08 07:50:45;;;;;;;4.30;3.30;;;;;;;8.68;97.47;99686.26;103019;1299;62636;-78
2023/01/08 07:53:15;;;;;;;5.50;3.40;;;;;;;8.67;97.91;99685.60;103469;1306;62103;-76
2023/01/08 07:55:42;;;;;;;5.20;3.70;;;;;;;8.68;97.80;99681.83;104179;1300;62125;-77
2023/01/08 07:58:13;;;;;;;5.00;3.40;;;;;;;8.67;97.79;99679.74;103791;1305;73873;-77
2023/01/08 08:00:40;;;;;;;4.40;3.50;;;;;;;8.67;98.22;99684.52;103474;1297;71651;-76
2023/01/08 08:03:10;;;;;;;4.50;3.00;;;;;;;8.66;98.39;99683.97;103423;1300;71895;-76
2023/01/08 08:05:37;;;;;;;4.30;3.10;;;;;;;8.66;98.85;99680.70;103258;1304;62190;-76
2023/01/08 08:08:13;;;;;;;4.90;3.40;;;;;;;8.65;98.87;99681.46;103329;1304;62029;-76
2023/01/08 08:10:41;;;;;;;5.20;3.50;;;;;;;8.66;99.22;99684.04;103418;1297;75512;-76
2023/01/08 08:13:08;;;;;;;5.40;3.20;;;;;;;8.66;99.51;99686.27;104581;1297;70006;-76
2023/01/08 08:15:36;;;;;;;5.40;3.50;;;;;;;8.67;99.52;99679.61;103977;1289;72642;-76
2023/01/08 08:18:03;;;;;;;4.60;3.30;;;;;;;8.68;99.67;99677.52;105085;1288;61387;-77
2023/01/08 08:20:30;;;;;;;4.10;3.30;;;;;;;8.69;99.83;99676.39;105216;1291;59823;-77
2023/01/08 08:23:08;;;;;;;3.50;2.80;;;;;;;8.72;99.66;99675.29;105209;1297;73901;-77
2023/01/08 08:25:35;;;;;;;5.10;3.20;;;;;;;8.75;99.67;99675.50;105096;1292;68798;-77
2023/01/08 08:28:03;;;;;;;3.90;2.80;;;;;;;8.77;99.73;99671.51;105203;1296;71350;-77
2023/01/08 08:30:32;;;;;;;4.00;2.80;;;;;;;8.78;99.70;99666.75;105029;1295;61292;-77
2023/01/08 08:33:01;;;;;;;3.80;2.90;;;;;;;8.82;99.79;99668.06;105144;1289;59723;-77
2023/01/08 08:35:29;;;;;;;3.80;2.90;;;;;;;8.85;99.56;99662.30;105059;1297;76290;-77
2023/01/08 08:37:56;;;;;;;4.00;2.80;;;;;;;8.87;99.56;99659.32;105028;1292;68863;-77
2023/01/08 08:40:23;;;;;;;3.80;2.70;;;;;;;8.90;99.55;99663.40;105246;1297;72830;-77
2023/01/08 08:43:01;;;;;;;3.90;2.80;;;;;;;8.93;99.33;99659.63;105142;1296;59909;-77
2023/01/08 08:45:28;;;;;;;4.00;2.90;;;;;;;8.97;99.17;99660.06;104974;1295;59810;-77
2023/01/08 08:47:55;;;;;;;4.10;2.50;;;;;;;8.99;99.11;99656.25;104994;1297;73463;-77
2023/01/08 08:50:22;;;;;;;3.60;2.50;;;;;;;9.04;98.79;99651.16;105214;1288;60310;-77
2023/01/08 08:52:48;;;;;;;3.70;2.70;;;;;;;9.07;98.71;99646.35;105065;1297;71522;-77
2023/01/08 08:55:16;;;;;;;3.70;2.50;;;;;;;9.09;98.64;99642.02;105240;1296;59834;-77
2023/01/08 08:57:44;;;;;;;3.40;2.70;;;;;;;9.10;98.70;99640.77;105062;1297;60113;-77
2023/01/08 09:00:12;;;;;;;3.20;2.60;;;;;;;9.15;98.43;99637.05;105027;1299;75176;-77
2023/01/08 09:02:38;;;;;;;3.90;2.80;;;;;;;9.18;98.23;99636.23;105153;1298;69692;-77
2023/01/08 09:05:05;;;;;;;3.60;2.70;;;;;;;9.23;98.07;99636.86;105348;1297;72744;-77
2023/01/08 09:07:32;;;;;;;4.00;2.60;;;;;;;9.29;97.74;99638.98;105177;1295;61599;-77
2023/01/08 09:09:58;;;;;;;3.80;2.70;;;;;;;9.34;97.59;99635.04;105377;1289;60148;-77
2023/01/08 09:12:25;;;;;;;3.20;2.50;;;;;;;9.41;97.63;99630.48;105439;1297;74262;-77
2023/01/08 09:14:53;;;;;;;4.20;2.50;;;;;;;9.48;97.25;99630.61;105385;1297;59823;-77
2023/01/08 09:17:20;;;;;;;3.30;2.20;;;;;;;9.55;96.83;99638.55;105373;1290;71399;-78
2023/01/08 09:19:47;;;;;;;3.10;2.00;;;;;;;9.62;96.47;99641.93;105317;1297;61805;-78
2023/01/08 09:22:13;;;;;;;3.10;2.10;;;;;;;9.70;96.05;99643.01;105349;1295;59663;-78
2023/01/08 09:24:40;;;;;;;3.10;2.10;;;;;;;9.76;95.60;99638.55;105212;1290;59730;-78
2023/01/08 09:27:06;;;;;;;2.80;1.90;;;;;;;9.81;95.12;99632.59;105229;1299;71198;-78
2023/01/08 09:29:36;;;;;;;2.90;2.20;;;;;;;9.86;95.00;99620.31;105410;1295;72496;-78
2023/01/08 09:32:06;;;;;;;3.00;2.20;;;;;;;9.88;94.83;99618.41;105238;1290;59699;-78
2023/01/08 09:34:34;;;;;;;2.60;2.00;;;;;;;9.91;94.78;99621.80;105321;1295;59792;-79
2023/01/08 09:37:02;;;;;;;3.20;2.10;;;;;;;9.93;94.71;99631.95;105256;1297;74386;-78
2023/01/08 09:39:28;;;;;;;3.60;2.40;;;;;;;9.97;94.60;99636.25;105372;1297;69817;-77
2023/01/08 09:41:57;;;;;;;2.70;2.20;;;;;;;10.07;94.54;99628.77;105464;1295;59893;-77
2023/01/08 09:44:29;;;;;;;3.60;2.10;;;;;;;10.20;94.33;99625.13;105317;1296;61813;-77
2023/01/08 09:46:55;;;;;;;3.40;2.00;;;;;;;10.37;94.04;99629.51;105417;1291;59826;-77
2023/01/08 09:49:28;;;;;;;2.50;1.80;;;;;;;10.55;93.22;99634.77;105298;1297;74326;-77
2023/01/08 09:51:54;;;;;;;2.10;1.60;;;;;;;10.70;92.55;99632.52;105350;1283;69583;-77
2023/01/08 09:54:25;;;;;;;2.70;1.90;;;;;;;10.76;91.42;99633.08;105382;1296;71226;-73
2023/01/08 09:56:52;;;;;;;2.70;1.60;;;;;;;10.80;91.13;99629.47;105442;1295;60039;-73
2023/01/08 09:59:19;;;;;;;2.90;1.60;;;;;;;10.83;90.80;99632.52;105218;1282;59895;-73
2023/01/08 10:01:49;;;;;;;2.20;1.50;;;;;;;10.79;90.13;99626.23;104943;1297;75239;-73
2023/01/08 10:04:20;;;;;;;2.40;1.40;;;;;;;10.74;89.81;99624.67;104999;1295;70928;-73
2023/01/08 10:07:07;;;;;;;2.60;1.40;;;;;;;10.69;89.68;99624.30;104965;1295;71300;-73
2023/01/08 10:09:34;;;;;;;2.00;1.30;;;;;;;10.63;89.57;99621.13;105042;1297;60598;-73
2023/01/08 10:12:03;;;;;;;1.90;1.30;;;;;;;10.62;89.69;99622.88;104970;1292;59831;-73
2023/01/08 10:14:34;;;;;;;1.90;1.20;;;;;;;10.59;89.56;99626.61;104923;1291;72994;-73
2023/01/08 10:17:16;;;;;;;1.90;1.20;;;;;;;10.56;89.12;99619.02;105068;1293;68897;-73
2023/01/08 10:19:44;;;;;;;3.20;1.10;;;;;;;10.51;88.89;99617.54;105078;1291;72902;-73
2023/01/08 10:22:15;;;;;;;1.60;1.00;;;;;;;10.47;88.84;99612.61;105074;1304;61424;-73
2023/01/08 10:24:42;;;;;;;2.20;1.10;;;;;;;10.49;88.97;99613.66;105029;1296;60487;-73
2023/01/08 10:27:22;;;;;;;1.80;1.10;;;;;;;10.51;88.39;99609.14;105340;1295;75236;-73
2023/01/08 10:29:50;;;;;;;1.80;1.10;;;;;;;10.51;88.24;99601.34;105306;1291;71357;-73
2023/01/08 10:32:37;;;;;;;1.50;0.90;;;;;;;10.53;88.25;99595.77;105320;1292;71996;-73
2023/01/08 10:35:05;;;;;;;1.80;1.00;;;;;;;10.55;87.97;99594.63;105427;1294;61299;-73
2023/01/08 10:37:38;;;;;;;1.50;0.90;;;;;;;10.56;87.60;99594.64;105448;1295;60102;-73
2023/01/08 10:40:29;;;;;;;1.40;0.70;;;;;;;10.55;87.21;99604.29;105300;1291;75514;-73
2023/01/08 10:43:04;;;;;;;1.40;0.80;;;;;;;10.57;87.52;99598.75;105293;1291;70981;-73
2023/01/08 10:45:31;;;;;;;1.80;1.00;;;;;;;10.58;87.69;99595.05;105347;1297;71274;-73
2023/01/08 10:48:00;;;;;;;1.60;0.90;;;;;;;10.60;87.78;99596.06;105367;1291;60509;-73
2023/01/08 10:50:29;;;;;;;2.20;0.90;;;;;;;10.63;87.62;99593.25;105247;1297;60148;-73
2023/01/08 10:53:24;;;;;;;1.70;0.90;;;;;;;10.66;87.55;99586.14;105244;1292;73877;-73
2023/01/08 10:56:02;;;;;;;1.40;0.90;;;;;;;10.68;87.27;99584.23;105367;1297;69635;-73
2023/01/08 10:58:39;;;;;;;1.70;1.00;;;;;;;10.71;87.24;99584.89;105379;1297;71941;-73
2023/01/08 11:01:11;;;;;;;2.30;1.00;;;;;;;10.74;86.90;99576.69;105280;1299;60422;-73
2023/01/08 11:03:39;;;;;;;2.10;1.10;;;;;;;10.79;86.66;99565.76;105270;1291;60529;-73
2023/01/08 11:06:19;;;;;;;1.70;1.00;;;;;;;10.85;86.20;99573.38;105283;1289;74442;-73
2023/01/08 11:08:51;;;;;;;1.70;0.90;;;;;;;10.89;85.97;99583.06;105357;1296;70042;-73
2023/01/08 11:11:18;;;;;;;1.50;0.90;;;;;;;10.90;85.77;99581.39;105432;1296;71177;-73
2023/01/08 11:13:56;;;;;;;1.50;0.80;;;;;;;10.87;85.25;99580.29;105317;1297;61829;-73
2023/01/08 11:16:33;;;;;;;1.60;0.90;;;;;;;10.94;85.42;99581.67;105334;1297;59758;-73
2023/01/08 11:19:00;;;;;;;1.50;0.90;;;;;;;11.00;84.93;99578.61;105239;1295;75786;-74
2023/01/08 11:21:30;;;;;;;2.20;0.90;;;;;;;11.03;84.33;99572.48;105285;1299;59796;-73
2023/01/08 11:24:23;;;;;;;1.80;0.90;;;;;;;11.09;83.51;99565.70;105291;1300;73313;-73
2023/01/08 11:26:59;;;;;;;1.70;1.00;;;;;;;11.19;83.02;99560.42;105353;1297;60461;-72
2023/01/08 11:29:32;;;;;;;1.30;0.70;;;;;;;11.31;82.67;99554.64;105257;1297;60121;-72
2023/01/08 11:32:14;;;;;;;1.40;0.80;;;;;;;11.38;81.42;99557.41;105491;1289;75448;-72
2023/01/08 11:34:59;;;;;;;1.40;0.80;;;;;;;11.53;81.37;99552.37;105300;1289;70282;-72
2023/01/08 11:37:39;;;;;;;1.40;0.90;;;;;;;11.79;81.44;99550.80;105468;1297;72553;-72
2023/01/08 11:40:34;;;;;;;1.50;0.70;;;;;;;12.11;80.50;99554.87;105232;1296;62035;-73
2023/01/08 11:43:06;;;;;;;1.50;0.90;;;;;;;12.35;78.42;99549.09;105505;1293;59093;-72